createdAt,value
2019-02-26T00:01:30.843Z,53.90
2019-02-26T00:04:25.467Z,54.00
2019-02-26T00:07:18.830Z,54.00
2019-02-26T00:10:11.519Z,54.00
2019-02-26T00:13:03.964Z,54.00
2019-02-26T00:15:56.491Z,53.90
2019-02-26T00:18:49.022Z,54.00
2019-02-26T00:21:43.002Z,54.00
2019-02-26T00:24:37.760Z,54.00
2019-02-26T00:27:30.611Z,54.00
2019-02-26T00:30:22.889Z,54.00
2019-02-26T00:33:16.805Z,54.00
2019-02-26T00:36:10.755Z,54.10
2019-02-26T00:39:04.957Z,54.10
2019-02-26T00:41:58.833Z,54.10
2019-02-26T00:44:53.641Z,54.20
2019-02-26T00:47:46.167Z,54.20
2019-02-26T00:50:39.804Z,54.20
2019-02-26T00:53:33.083Z,54.30
2019-02-26T00:56:29.149Z,54.20
2019-02-26T00:59:19.322Z,54.30
2019-02-26T01:02:11.315Z,54.30
2019-02-26T01:05:04.125Z,54.20
2019-02-26T01:07:57.384Z,54.30
2019-02-26T01:10:49.675Z,54.40
2019-02-26T01:13:42.665Z,54.30
2019-02-26T01:16:34.568Z,54.30
2019-02-26T01:19:26.518Z,54.30
2019-02-26T01:22:18.666Z,54.40
2019-02-26T01:25:12.565Z,54.30
2019-02-26T01:28:04.718Z,54.40
2019-02-26T01:30:57.927Z,54.40
2019-02-26T01:33:50.895Z,54.30
2019-02-26T01:36:47.220Z,54.30
2019-02-26T01:39:42.333Z,54.30
2019-02-26T01:42:32.721Z,54.30
2019-02-26T01:45:27.338Z,54.10
2019-02-26T01:48:19.768Z,54.00
2019-02-26T01:51:12.143Z,53.60
2019-02-26T01:54:05.290Z,53.30
2019-02-26T01:56:58.704Z,53.40
2019-02-26T01:59:52.422Z,53.20
2019-02-26T02:02:44.897Z,53.00
2019-02-26T02:05:37.466Z,52.70
2019-02-26T02:08:30.094Z,52.70
2019-02-26T02:11:23.857Z,52.60
2019-02-26T02:14:17.050Z,52.50
2019-02-26T02:17:10.896Z,52.50
2019-02-26T02:20:07.673Z,52.50
2019-02-26T02:22:58.151Z,52.50
2019-02-26T02:25:50.826Z,52.20
2019-02-26T02:28:46.235Z,51.50
2019-02-26T02:31:40.153Z,51.10
2019-02-26T02:34:32.843Z,50.90
2019-02-26T02:37:26.958Z,51.30
2019-02-26T02:40:20.082Z,51.20
2019-02-26T02:43:15.229Z,51.20
2019-02-26T02:46:05.927Z,51.10
2019-02-26T02:48:57.890Z,51.20
2019-02-26T02:51:50.226Z,51.20
2019-02-26T02:54:44.103Z,51.20
2019-02-26T02:57:36.363Z,51.20
2019-02-26T03:00:30.905Z,51.30
2019-02-26T03:03:23.647Z,51.30
2019-02-26T03:06:16.997Z,51.30
2019-02-26T03:09:17.221Z,51.30
2019-02-26T03:12:08.412Z,51.10
2019-02-26T03:15:02.253Z,51.20
2019-02-26T03:17:54.027Z,51.90
2019-02-26T03:20:46.318Z,51.10
2019-02-26T03:23:41.254Z,51.10
2019-02-26T03:26:31.760Z,51.30
2019-02-26T03:29:24.013Z,51.50
2019-02-26T03:32:16.146Z,51.40
2019-02-26T03:35:10.157Z,51.50
2019-02-26T03:38:03.628Z,51.50
2019-02-26T03:40:58.165Z,51.60
2019-02-26T03:43:48.664Z,51.50
2019-02-26T03:46:41.055Z,51.40
2019-02-26T03:49:34.670Z,51.40
2019-02-26T03:52:28.987Z,51.40
2019-02-26T03:55:20.607Z,51.40
2019-02-26T03:58:12.858Z,51.20
2019-02-26T04:01:08.410Z,51.00
2019-02-26T04:03:59.879Z,50.50
2019-02-26T04:06:55.662Z,51.20
2019-02-26T04:09:49.815Z,51.30
2019-02-26T04:12:42.329Z,51.40
2019-02-26T04:15:36.366Z,51.40
2019-02-26T04:18:34.098Z,51.40
2019-02-26T04:21:23.329Z,51.40
2019-02-26T04:24:19.058Z,51.30
2019-02-26T04:27:33.583Z,51.40
2019-02-26T04:30:39.319Z,51.10
2019-02-26T04:33:49.886Z,50.90
2019-02-26T04:37:04.835Z,52.80
2019-02-26T04:40:22.616Z,54.90
2019-02-26T04:43:51.959Z,54.60
2019-02-26T04:46:47.961Z,54.10
2019-02-26T04:49:42.929Z,53.80
2019-02-26T04:52:37.778Z,53.80
2019-02-26T04:55:31.856Z,53.70
2019-02-26T04:58:22.856Z,53.60
2019-02-26T05:01:16.394Z,53.60
2019-02-26T05:04:09.300Z,53.50
2019-02-26T05:07:05.171Z,53.40
2019-02-26T05:09:59.433Z,53.40
2019-02-26T05:12:57.918Z,53.30
2019-02-26T05:15:53.870Z,53.20
2019-02-26T05:18:51.564Z,52.80
2019-02-26T05:21:45.796Z,52.60
2019-02-26T05:24:44.271Z,52.40
2019-02-26T05:49:09.744Z,52.00
2019-02-26T05:52:02.121Z,52.00
2019-02-26T05:55:48.766Z,51.80
2019-02-26T06:05:33.646Z,51.70
2019-02-26T06:08:33.709Z,51.60
2019-02-26T06:11:33.496Z,51.50
2019-02-26T06:14:30.327Z,51.30
2019-02-26T06:17:28.866Z,51.20
2019-02-26T06:20:45.314Z,51.10
2019-02-26T06:23:46.678Z,51.00
2019-02-26T06:29:58.137Z,50.50
2019-02-26T06:32:52.694Z,50.50
2019-02-26T06:36:04.251Z,50.50
2019-02-26T06:39:01.374Z,49.90
2019-02-26T06:42:09.660Z,50.00
2019-02-26T06:45:16.638Z,50.10
2019-02-26T06:48:24.438Z,50.00
2019-02-26T06:51:26.007Z,50.00
2019-02-26T06:54:22.680Z,49.80
2019-02-26T06:57:22.067Z,49.80
2019-02-26T07:00:29.325Z,49.60
2019-02-26T07:03:24.161Z,49.40
2019-02-26T07:06:20.623Z,49.20
2019-02-26T07:09:20.506Z,49.00
2019-02-26T07:12:20.010Z,48.90
2019-02-26T07:15:15.148Z,48.80
2019-02-26T07:18:14.265Z,48.40
2019-02-26T07:21:29.297Z,48.10
2019-02-26T07:24:33.701Z,48.00
2019-02-26T07:28:03.037Z,47.60
2019-02-26T07:31:02.721Z,47.40
2019-02-26T07:34:06.672Z,47.50
2019-02-26T07:37:11.098Z,47.30
2019-02-26T07:43:54.800Z,46.90
2019-02-26T07:47:08.625Z,47.00
2019-02-26T07:50:31.786Z,47.00
2019-02-26T07:54:02.567Z,47.00
2019-02-26T07:58:57.019Z,47.10
2019-02-26T08:08:40.162Z,46.80
2019-02-26T08:12:08.419Z,46.90
2019-02-26T08:15:46.901Z,46.50
2019-02-26T08:19:17.453Z,45.60
2019-02-26T08:26:09.264Z,45.90
2019-02-26T08:32:48.376Z,45.70
2019-02-26T08:40:40.148Z,45.70
2019-02-26T08:51:19.807Z,45.10
2019-02-26T09:02:46.139Z,45.20
2019-02-26T09:09:30.318Z,44.90
2019-02-26T09:12:26.658Z,45.20
2019-02-26T09:15:33.553Z,45.00
2019-02-26T09:18:28.008Z,45.20
2019-02-26T09:21:23.131Z,45.10
2019-02-26T09:24:17.310Z,45.10
2019-02-26T09:27:10.941Z,45.10
2019-02-26T09:30:05.924Z,45.30
2019-02-26T09:33:00.904Z,45.30
2019-02-26T09:35:56.636Z,45.30
2019-02-26T09:38:49.628Z,45.30
2019-02-26T09:41:45.602Z,45.50
2019-02-26T09:44:44.692Z,45.40
2019-02-26T09:47:49.787Z,45.00
2019-02-26T09:50:46.428Z,45.40
2019-02-26T09:54:01.814Z,45.50
2019-02-26T09:56:52.200Z,45.60
2019-02-26T09:59:49.618Z,45.30
2019-02-26T10:02:49.379Z,45.40
2019-02-26T10:05:41.679Z,45.00
2019-02-26T10:08:34.089Z,44.90
2019-02-26T10:11:41.928Z,44.40
2019-02-26T10:14:38.352Z,44.40
2019-02-26T10:17:34.730Z,44.00
2019-02-26T10:20:31.655Z,43.70
2019-02-26T10:23:28.470Z,43.90
2019-02-26T10:26:26.294Z,43.80
2019-02-26T10:29:26.164Z,44.00
2019-02-26T10:32:20.358Z,44.10
2019-02-26T10:35:25.603Z,44.00
2019-02-26T10:38:16.076Z,44.00
2019-02-26T10:41:08.636Z,44.00
2019-02-26T10:43:49.403Z,43.90
2019-02-26T10:46:48.775Z,43.90
2019-02-26T10:50:10.064Z,43.90
2019-02-26T10:53:09.750Z,43.80
2019-02-26T10:56:01.777Z,43.80
2019-02-26T10:58:58.784Z,43.80
2019-02-26T11:01:52.336Z,43.30
2019-02-26T11:05:26.809Z,43.50
2019-02-26T11:08:24.679Z,43.50
2019-02-26T11:11:19.000Z,43.50
2019-02-26T11:14:15.984Z,43.50
2019-02-26T11:17:08.644Z,43.40
2019-02-26T11:20:04.663Z,43.40
2019-02-26T11:22:59.018Z,43.40
2019-02-26T11:25:51.861Z,43.70
2019-02-26T11:28:45.890Z,43.50
2019-02-26T11:31:39.765Z,43.50
2019-02-26T11:34:33.417Z,43.40
2019-02-26T11:37:27.124Z,43.30
2019-02-26T11:40:22.154Z,43.40
2019-02-26T11:43:15.043Z,43.40
2019-02-26T11:49:34.319Z,43.10
2019-02-26T11:52:51.627Z,42.70
2019-02-26T11:55:41.471Z,42.40
2019-02-26T11:58:37.678Z,43.00
2019-02-26T12:01:36.932Z,42.70
2019-02-26T12:09:16.100Z,42.40
2019-02-26T12:12:34.177Z,42.60
2019-02-26T12:15:56.879Z,42.60
2019-02-26T12:19:03.539Z,42.00
2019-02-26T12:22:37.806Z,42.80
2019-02-26T12:27:16.254Z,42.20
2019-02-26T12:29:08.389Z,42.00
2019-02-26T12:32:01.199Z,42.20
2019-02-26T12:34:55.267Z,42.30
2019-02-26T12:38:26.738Z,41.70
2019-02-26T12:41:21.038Z,41.80
2019-02-26T12:45:13.664Z,41.80
2019-02-26T12:48:19.094Z,41.70
2019-02-26T12:51:12.614Z,41.50
2019-02-26T12:55:32.913Z,41.40
2019-02-26T12:58:24.411Z,41.60
2019-02-26T13:01:53.857Z,41.30
2019-02-26T13:05:06.590Z,41.80
2019-02-26T13:08:16.303Z,41.70
2019-02-26T13:11:07.024Z,41.40
2019-02-26T13:14:03.675Z,41.00
2019-02-26T13:17:29.493Z,40.80
2019-02-26T13:20:21.382Z,40.50
2019-02-26T13:23:17.801Z,40.80
2019-02-26T13:26:14.153Z,40.80
2019-02-26T13:29:06.030Z,41.00
2019-02-26T13:32:00.090Z,40.90
2019-02-26T13:35:07.734Z,40.20
2019-02-26T13:38:14.845Z,40.40
2019-02-26T13:42:03.507Z,40.70
2019-02-26T13:45:17.179Z,39.80
2019-02-26T13:48:11.562Z,40.30
2019-02-26T13:51:06.918Z,41.40
2019-02-26T13:54:00.922Z,41.40
2019-02-26T13:56:54.779Z,41.70
2019-02-26T13:59:49.049Z,42.10
2019-02-26T14:02:41.657Z,42.10
2019-02-26T14:05:38.421Z,42.50
2019-02-26T14:08:30.744Z,42.60
2019-02-26T14:11:24.003Z,42.80
2019-02-26T14:14:17.201Z,43.00
2019-02-26T14:17:09.854Z,43.20
2019-02-26T14:20:03.686Z,43.20
2019-02-26T14:22:56.262Z,43.40
2019-02-26T14:25:48.578Z,43.60
2019-02-26T14:28:40.673Z,43.60
2019-02-26T14:31:33.081Z,43.90
2019-02-26T14:34:25.469Z,44.10
2019-02-26T14:37:19.256Z,43.90
2019-02-26T14:40:12.587Z,44.20
2019-02-26T14:43:04.980Z,44.20
2019-02-26T14:45:59.737Z,44.40
2019-02-26T14:48:54.496Z,44.60
2019-02-26T14:51:47.167Z,44.60
2019-02-26T14:54:39.470Z,44.70
2019-02-26T14:57:32.332Z,44.80
2019-02-26T15:00:26.015Z,44.80
2019-02-26T15:03:18.306Z,44.80
2019-02-26T15:06:11.595Z,44.80
2019-02-26T15:09:04.385Z,44.90
2019-02-26T15:11:58.344Z,44.90
2019-02-26T15:14:50.960Z,45.00
2019-02-26T15:17:43.369Z,45.20
2019-02-26T15:20:36.639Z,45.10
2019-02-26T15:23:29.762Z,45.30
2019-02-26T15:26:25.176Z,45.30
2019-02-26T15:29:17.315Z,45.40
2019-02-26T15:32:09.783Z,45.40
2019-02-26T15:35:02.670Z,45.40
2019-02-26T15:37:56.959Z,45.50
2019-02-26T15:40:51.137Z,45.60
2019-02-26T15:43:44.537Z,45.60
2019-02-26T15:46:37.910Z,45.70
2019-02-26T15:49:30.828Z,45.80
2019-02-26T15:52:24.340Z,45.70
2019-02-26T15:55:19.857Z,45.80
2019-02-26T15:58:13.259Z,45.90
2019-02-26T16:01:12.878Z,45.80
2019-02-26T16:04:05.509Z,45.90
2019-02-26T16:06:59.334Z,45.90
2019-02-26T16:09:52.321Z,45.90
2019-02-26T16:12:46.227Z,45.90
2019-02-26T16:15:41.014Z,45.70
2019-02-26T16:18:34.637Z,45.40
2019-02-26T16:21:28.851Z,46.00
2019-02-26T16:24:21.602Z,45.80
2019-02-26T16:27:15.823Z,46.00
2019-02-26T16:30:09.268Z,46.00
2019-02-26T16:33:02.571Z,46.00
2019-02-26T16:35:57.629Z,46.10
2019-02-26T16:38:51.401Z,46.20
2019-02-26T16:41:44.130Z,46.30
2019-02-26T16:44:37.087Z,46.20
2019-02-26T16:47:30.955Z,45.90
2019-02-26T16:50:26.846Z,46.20
2019-02-26T16:53:20.527Z,46.20
2019-02-26T16:56:12.895Z,46.20
2019-02-26T16:59:07.639Z,45.90
2019-02-26T17:02:01.809Z,46.20
2019-02-26T17:05:01.424Z,46.20
2019-02-26T17:07:55.493Z,46.40
2019-02-26T17:10:48.383Z,46.30
2019-02-26T17:13:43.416Z,46.40
2019-02-26T17:16:34.694Z,46.20
2019-02-26T17:19:28.291Z,46.00
2019-02-26T17:22:20.899Z,46.10
2019-02-26T17:25:13.295Z,46.50
2019-02-26T17:28:09.401Z,46.50
2019-02-26T17:31:01.125Z,46.60
2019-02-26T17:33:54.060Z,46.60
2019-02-26T17:36:46.741Z,47.10
2019-02-26T17:39:39.694Z,47.50
2019-02-26T17:42:32.635Z,47.80
2019-02-26T17:45:25.275Z,47.90
2019-02-26T17:48:18.973Z,48.00
2019-02-26T17:51:12.987Z,48.10
2019-02-26T17:54:05.786Z,48.20
2019-02-26T17:57:00.354Z,48.30
2019-02-26T17:59:52.813Z,48.40
2019-02-26T18:02:45.174Z,48.50
2019-02-26T18:05:50.427Z,48.50
2019-02-26T18:08:31.743Z,48.60
2019-02-26T18:11:24.502Z,48.70
2019-02-26T18:14:20.551Z,48.70
2019-02-26T18:17:13.280Z,48.80
2019-02-26T18:20:06.197Z,48.90
2019-02-26T18:23:00.220Z,48.90
2019-02-26T18:25:53.085Z,48.90
2019-02-26T18:28:47.806Z,49.00
2019-02-26T18:31:40.082Z,49.00
2019-02-26T18:34:33.485Z,49.20
2019-02-26T18:37:25.783Z,49.20
2019-02-26T18:40:18.477Z,49.20
2019-02-26T18:43:11.660Z,49.30
2019-02-26T18:46:04.922Z,49.40
2019-02-26T18:48:57.639Z,49.30
2019-02-26T18:51:49.926Z,49.30
2019-02-26T18:54:42.241Z,49.40
2019-02-26T18:57:34.524Z,49.50
2019-02-26T19:00:27.240Z,49.50
2019-02-26T19:03:19.609Z,49.50
2019-02-26T19:06:12.001Z,49.60
2019-02-26T19:09:04.556Z,49.60
2019-02-26T19:11:57.767Z,49.60
2019-02-26T19:14:50.570Z,49.70
2019-02-26T19:17:43.754Z,49.70
2019-02-26T19:20:36.401Z,49.70
2019-02-26T19:23:31.471Z,49.70
2019-02-26T19:26:23.340Z,49.80
2019-02-26T19:29:16.555Z,49.80
2019-02-26T19:32:09.448Z,49.90
2019-02-26T19:35:02.005Z,49.80
2019-02-26T19:37:56.083Z,49.90
2019-02-26T19:40:49.145Z,49.90
2019-02-26T19:43:42.421Z,50.00
2019-02-26T19:46:34.959Z,49.80
2019-02-26T19:49:27.014Z,50.00
2019-02-26T19:52:20.630Z,49.90
2019-02-26T19:55:15.740Z,50.00
2019-02-26T19:58:09.216Z,49.90
2019-02-26T20:01:01.191Z,50.00
2019-02-26T20:03:53.789Z,49.70
2019-02-26T20:06:46.342Z,49.50
2019-02-26T20:09:41.510Z,49.70
2019-02-26T20:12:33.062Z,49.50
2019-02-26T20:15:25.330Z,49.80
2019-02-26T20:18:20.910Z,49.80
2019-02-26T20:21:11.132Z,49.80
2019-02-26T20:24:03.441Z,49.80
2019-02-26T20:26:55.847Z,49.70
2019-02-26T20:29:48.392Z,49.90
2019-02-26T20:32:40.835Z,49.40
2019-02-26T20:35:33.125Z,49.70
2019-02-26T20:38:35.037Z,49.70
2019-02-26T20:41:24.351Z,49.70
2019-02-26T20:44:16.698Z,49.70
2019-02-26T20:47:09.176Z,49.80
2019-02-26T20:50:01.667Z,49.70
2019-02-26T20:52:55.171Z,49.80
2019-02-26T20:55:52.469Z,49.80
2019-02-26T20:58:44.649Z,49.50
2019-02-26T21:01:35.043Z,49.50
2019-02-26T21:04:27.400Z,49.70
2019-02-26T21:07:21.792Z,49.70
2019-02-26T21:10:15.397Z,49.80
2019-02-26T21:13:07.942Z,49.70
2019-02-26T21:16:00.153Z,49.90
2019-02-26T21:18:52.417Z,49.80
2019-02-26T21:21:48.913Z,50.00
2019-02-26T21:24:38.320Z,49.80
2019-02-26T21:27:30.820Z,49.90
2019-02-26T21:30:24.106Z,50.00
2019-02-26T21:33:16.369Z,50.00
2019-02-26T21:36:08.617Z,49.70
2019-02-26T21:39:00.865Z,49.80
2019-02-26T21:41:56.369Z,49.70
2019-02-26T21:44:47.879Z,49.80
2019-02-26T21:47:39.925Z,49.60
2019-02-26T21:50:32.129Z,49.60
2019-02-26T21:53:24.424Z,49.90
2019-02-26T21:56:16.947Z,49.50
2019-02-26T21:59:09.134Z,49.50
2019-02-26T22:02:01.466Z,49.40
2019-02-26T22:04:56.620Z,49.20
2019-02-26T22:07:51.991Z,49.50
2019-02-26T22:10:42.884Z,49.30
2019-02-26T22:13:36.131Z,49.40
2019-02-26T22:16:28.600Z,48.00
2019-02-26T22:19:21.776Z,49.10
2019-02-26T22:22:14.164Z,49.20
2019-02-26T22:25:09.682Z,48.90
2019-02-26T22:28:00.099Z,48.90
2019-02-26T22:30:55.670Z,48.90
2019-02-26T22:33:46.391Z,48.90
2019-02-26T22:36:38.602Z,49.00
2019-02-26T22:39:30.964Z,48.80
2019-02-26T22:42:23.241Z,48.90
2019-02-26T22:45:16.127Z,48.80
2019-02-26T22:48:13.484Z,49.00
2019-02-26T22:51:02.714Z,48.60
2019-02-26T22:53:55.931Z,49.00
2019-02-26T22:56:48.143Z,48.70
2019-02-26T22:59:40.825Z,48.60
2019-02-26T23:02:35.339Z,48.40
2019-02-26T23:05:27.806Z,48.60
2019-02-26T23:08:23.689Z,48.40
2019-02-26T23:11:20.442Z,48.60
2019-02-26T23:14:13.576Z,48.00
2019-02-26T23:17:08.591Z,48.40
2019-02-26T23:20:01.049Z,48.60
2019-02-26T23:22:53.443Z,48.40
2019-02-26T23:25:45.832Z,48.60
2019-02-26T23:28:38.173Z,48.20
2019-02-26T23:31:32.722Z,48.40
2019-02-26T23:34:24.920Z,48.80
2019-02-26T23:37:20.258Z,48.20
2019-02-26T23:40:12.911Z,48.10
2019-02-26T23:43:05.203Z,48.40
2019-02-26T23:45:57.623Z,48.50
2019-02-26T23:48:49.698Z,48.50
2019-02-26T23:51:41.974Z,47.80
2019-02-26T23:54:34.262Z,48.10
2019-02-26T23:57:26.434Z,48.30
